createdAt,value
2023-03-12T00:01:15.727Z,4.39
2023-03-12T00:03:44.230Z,4.38
2023-03-12T00:06:12.479Z,4.39
2023-03-12T00:08:41.809Z,4.37
2023-03-12T00:11:12.041Z,4.36
2023-03-12T00:13:40.987Z,4.34
2023-03-12T00:16:11.928Z,4.32
2023-03-12T00:18:40.391Z,4.32
2023-03-12T00:21:09.456Z,4.31
2023-03-12T00:23:38.201Z,4.31
2023-03-12T00:26:09.395Z,4.32
2023-03-12T00:28:38.375Z,4.35
2023-03-12T00:31:15.692Z,4.36
2023-03-12T00:33:44.657Z,4.33
2023-03-12T00:36:13.389Z,4.35
2023-03-12T00:38:41.545Z,4.35
2023-03-12T00:41:11.496Z,4.36
2023-03-12T00:43:39.892Z,4.36
2023-03-12T00:46:07.944Z,4.37
2023-03-12T00:48:36.133Z,4.36
2023-03-12T00:51:04.398Z,4.36
2023-03-12T00:53:32.440Z,4.34
2023-03-12T00:56:00.815Z,4.31
2023-03-12T00:58:30.492Z,4.32
2023-03-12T01:00:58.713Z,4.31
2023-03-12T01:03:27.344Z,4.29
2023-03-12T01:05:55.591Z,4.29
2023-03-12T01:08:25.362Z,4.28
2023-03-12T01:10:54.331Z,4.26
2023-03-12T01:13:23.507Z,4.26
2023-03-12T01:15:52.986Z,4.24
2023-03-12T01:18:21.246Z,4.23
2023-03-12T01:20:49.395Z,4.23
2023-03-12T01:23:17.996Z,4.21
2023-03-12T01:25:47.493Z,4.22
2023-03-12T01:28:15.481Z,4.22
2023-03-12T01:30:43.530Z,4.20
2023-03-12T01:33:13.413Z,4.22
2023-03-12T01:35:42.570Z,4.20
2023-03-12T01:38:14.881Z,4.20
2023-03-12T01:40:44.925Z,4.20
2023-03-12T01:43:27.704Z,4.19
2023-03-12T01:46:24.111Z,4.19
2023-03-12T01:48:58.092Z,4.19
2023-03-12T01:51:29.245Z,4.15
2023-03-12T01:54:03.310Z,4.13
2023-03-12T01:56:36.056Z,4.11
2023-03-12T01:59:11.608Z,4.10
2023-03-12T02:01:42.063Z,4.11
2023-03-12T02:04:13.245Z,4.10
2023-03-12T02:06:49.671Z,4.10
2023-03-12T02:09:20.524Z,4.09
2023-03-12T02:11:50.448Z,4.10
2023-03-12T02:14:20.577Z,4.09
2023-03-12T02:16:49.128Z,4.08
2023-03-12T02:19:24.633Z,4.07
2023-03-12T02:21:53.430Z,4.03
2023-03-12T02:24:29.560Z,4.07
2023-03-12T02:27:00.686Z,4.04
2023-03-12T02:29:33.051Z,4.04
2023-03-12T02:32:06.965Z,4.05
2023-03-12T02:34:36.039Z,4.05
2023-03-12T02:37:04.692Z,4.06
2023-03-12T02:39:32.735Z,4.02
2023-03-12T02:42:02.293Z,4.02
2023-03-12T02:44:33.360Z,4.00
2023-03-12T02:47:02.931Z,4.00
2023-03-12T02:49:33.588Z,4.02
2023-03-12T02:52:02.389Z,4.03
2023-03-12T02:54:31.476Z,4.01
2023-03-12T02:57:00.184Z,4.04
2023-03-12T02:59:30.720Z,4.03
2023-03-12T03:02:01.699Z,4.03
2023-03-12T03:04:31.380Z,4.03
2023-03-12T03:06:59.565Z,4.01
2023-03-12T03:09:27.978Z,3.98
2023-03-12T03:11:56.284Z,3.99
2023-03-12T03:14:24.836Z,3.99
2023-03-12T03:16:54.653Z,4.01
2023-03-12T03:19:24.117Z,3.99
2023-03-12T03:21:52.356Z,4.00
2023-03-12T03:24:21.081Z,3.99
2023-03-12T03:26:49.507Z,3.98
2023-03-12T03:29:18.056Z,3.97
2023-03-12T03:31:46.164Z,3.98
2023-03-12T03:34:16.259Z,3.97
2023-03-12T03:36:44.340Z,3.99
2023-03-12T03:39:12.671Z,4.00
2023-03-12T03:41:40.967Z,3.98
2023-03-12T03:44:09.046Z,4.00
2023-03-12T03:46:37.387Z,4.01
2023-03-12T03:49:06.844Z,4.02
2023-03-12T03:51:36.460Z,4.04
2023-03-12T03:54:05.415Z,4.01
2023-03-12T03:56:33.630Z,4.03
2023-03-12T03:59:03.066Z,4.03
2023-03-12T04:01:32.254Z,4.03
2023-03-12T04:04:01.583Z,4.02
2023-03-12T04:06:30.566Z,4.03
2023-03-12T04:09:01.208Z,4.05
2023-03-12T04:11:30.317Z,4.05
2023-03-12T04:13:59.252Z,4.06
2023-03-12T04:16:28.005Z,4.03
2023-03-12T04:18:56.429Z,4.01
2023-03-12T04:21:24.708Z,4.00
2023-03-12T04:23:53.315Z,3.99
2023-03-12T04:26:24.563Z,3.98
2023-03-12T04:28:52.975Z,4.00
2023-03-12T04:31:21.168Z,4.00
2023-03-12T04:33:50.325Z,4.02
2023-03-12T04:36:18.629Z,4.00
2023-03-12T04:38:47.158Z,3.99
2023-03-12T04:41:17.273Z,3.98
2023-03-12T04:43:47.808Z,3.95
2023-03-12T04:46:16.606Z,3.95
2023-03-12T04:48:44.870Z,3.94
2023-03-12T04:51:13.981Z,3.93
2023-03-12T04:53:42.456Z,3.92
2023-03-12T04:56:11.000Z,3.89
2023-03-12T04:58:39.182Z,3.89
2023-03-12T05:01:08.873Z,3.87
2023-03-12T05:03:38.861Z,3.86
2023-03-12T05:06:07.294Z,3.85
2023-03-12T05:08:36.117Z,3.85
2023-03-12T05:11:04.298Z,3.87
2023-03-12T05:13:32.316Z,3.88
2023-03-12T05:16:00.840Z,3.88
2023-03-12T05:18:30.676Z,3.89
2023-03-12T05:21:00.298Z,3.87
2023-03-12T05:23:28.939Z,3.87
2023-03-12T05:25:58.332Z,3.87
2023-03-12T05:28:28.586Z,3.87
2023-03-12T05:30:59.198Z,3.87
2023-03-12T05:33:28.636Z,3.86
2023-03-12T05:35:58.549Z,3.88
2023-03-12T05:38:27.130Z,3.87
2023-03-12T05:40:57.449Z,3.91
2023-03-12T05:43:26.876Z,3.88
2023-03-12T05:46:00.022Z,3.85
2023-03-12T05:48:28.595Z,3.88
2023-03-12T05:50:59.118Z,3.88
2023-03-12T05:53:27.718Z,3.86
2023-03-12T05:55:55.659Z,3.91
2023-03-12T05:58:24.024Z,3.95
2023-03-12T06:00:52.518Z,3.98
2023-03-12T06:03:20.788Z,4.00
2023-03-12T06:05:48.932Z,4.04
2023-03-12T06:08:20.434Z,4.09
2023-03-12T06:10:51.259Z,4.13
2023-03-12T06:13:19.513Z,4.21
2023-03-12T06:15:47.777Z,4.29
2023-03-12T06:18:17.240Z,4.37
2023-03-12T06:20:46.654Z,4.47
2023-03-12T06:23:14.791Z,4.57
2023-03-12T06:25:47.021Z,4.68
2023-03-12T06:28:15.027Z,4.79
2023-03-12T06:30:46.354Z,4.94
2023-03-12T06:33:14.394Z,5.04
2023-03-12T06:35:42.661Z,5.17
2023-03-12T06:38:11.331Z,5.29
2023-03-12T06:40:39.525Z,5.40
2023-03-12T06:43:12.234Z,5.55
2023-03-12T06:45:40.592Z,5.66
2023-03-12T06:48:08.786Z,5.82
2023-03-12T06:50:37.896Z,5.93
2023-03-12T06:53:06.251Z,6.06
2023-03-12T06:55:34.303Z,6.15
2023-03-12T06:58:03.994Z,6.22
2023-03-12T07:00:34.832Z,6.27
2023-03-12T07:03:02.921Z,6.34
2023-03-12T07:05:31.206Z,6.40
2023-03-12T07:07:59.723Z,6.42
2023-03-12T07:10:29.528Z,6.47
2023-03-12T07:12:58.544Z,6.53
2023-03-12T07:15:26.951Z,6.65
2023-03-12T07:17:56.923Z,6.72
2023-03-12T07:20:25.044Z,6.85
2023-03-12T07:22:53.655Z,6.98
2023-03-12T07:25:21.875Z,7.09
2023-03-12T07:27:50.630Z,7.31
2023-03-12T07:30:19.727Z,7.49
2023-03-12T07:32:47.850Z,7.61
2023-03-12T07:35:17.458Z,7.74
2023-03-12T07:37:45.990Z,7.84
2023-03-12T07:40:14.612Z,7.94
2023-03-12T07:42:45.430Z,8.08
2023-03-12T07:45:14.055Z,8.14
2023-03-12T07:47:42.286Z,8.25
2023-03-12T07:50:11.742Z,8.34
2023-03-12T07:52:41.389Z,8.34
2023-03-12T07:55:11.228Z,8.38
2023-03-12T07:57:39.988Z,8.43
2023-03-12T08:00:10.467Z,8.47
2023-03-12T08:02:40.080Z,8.56
2023-03-12T08:05:09.017Z,8.57
2023-03-12T08:07:37.320Z,8.59
2023-03-12T08:10:09.748Z,8.71
2023-03-12T08:12:38.449Z,8.92
2023-03-12T08:15:08.383Z,9.15
2023-03-12T08:17:36.576Z,9.21
2023-03-12T08:20:05.871Z,9.28
2023-03-12T08:22:33.760Z,9.37
2023-03-12T08:25:01.641Z,9.41
2023-03-12T08:27:31.471Z,9.39
2023-03-12T08:29:59.342Z,9.40
2023-03-12T08:32:27.639Z,9.50
2023-03-12T08:34:55.942Z,9.56
2023-03-12T08:37:24.135Z,9.70
2023-03-12T08:39:52.064Z,9.84
2023-03-12T08:42:20.299Z,10.01
2023-03-12T08:44:49.597Z,10.01
2023-03-12T08:47:17.601Z,9.96
2023-03-12T08:49:46.058Z,9.99
2023-03-12T08:52:14.014Z,10.02
2023-03-12T08:54:42.030Z,10.09
2023-03-12T08:57:10.667Z,10.22
2023-03-12T08:59:38.902Z,10.24
2023-03-12T09:02:08.474Z,10.28
2023-03-12T09:04:36.676Z,10.27
2023-03-12T09:07:04.784Z,10.34
2023-03-12T09:09:33.941Z,10.26
2023-03-12T09:12:02.165Z,10.24
2023-03-12T09:17:20.207Z,10.41
2023-03-12T09:19:48.376Z,10.41
2023-03-12T09:22:17.253Z,10.60
2023-03-12T09:24:45.952Z,10.74
2023-03-12T09:27:13.824Z,10.92
2023-03-12T09:29:58.722Z,11.05
2023-03-12T09:32:29.715Z,11.24
2023-03-12T09:34:57.713Z,11.37
2023-03-12T09:37:26.249Z,11.54
2023-03-12T09:39:55.185Z,11.62
2023-03-12T09:42:26.287Z,11.70
2023-03-12T09:44:59.155Z,11.76
2023-03-12T09:47:31.627Z,11.75
2023-03-12T09:50:06.470Z,11.80
2023-03-12T09:52:40.502Z,11.80
2023-03-12T09:55:14.957Z,11.74
2023-03-12T09:57:44.355Z,11.93
2023-03-12T10:00:15.524Z,12.04
2023-03-12T10:03:06.666Z,12.04
2023-03-12T10:05:39.089Z,12.22
2023-03-12T10:08:24.729Z,12.18
2023-03-12T10:10:56.077Z,12.19
2023-03-12T10:13:42.053Z,12.34
2023-03-12T10:16:22.069Z,12.29
2023-03-12T10:19:06.154Z,12.38
2023-03-12T10:21:40.369Z,12.54
2023-03-12T10:24:25.061Z,12.55
2023-03-12T10:26:56.732Z,12.88
2023-03-12T10:29:29.600Z,13.10
2023-03-12T10:32:01.792Z,13.25
2023-03-12T10:34:37.580Z,13.08
2023-03-12T10:37:15.094Z,12.95
2023-03-12T10:39:43.508Z,12.98
2023-03-12T10:42:17.151Z,12.99
2023-03-12T10:44:48.153Z,13.14
2023-03-12T10:47:29.057Z,13.56
2023-03-12T10:50:14.013Z,13.80
2023-03-12T10:52:42.921Z,13.70
2023-03-12T10:55:13.859Z,13.75
2023-03-12T10:57:43.073Z,13.72
2023-03-12T11:00:20.829Z,13.81
2023-03-12T11:02:59.170Z,13.78
2023-03-12T11:05:31.351Z,14.01
2023-03-12T11:08:01.990Z,14.18
2023-03-12T11:10:43.194Z,14.43
2023-03-12T11:13:27.831Z,14.62
2023-03-12T11:15:58.193Z,14.67
2023-03-12T11:18:29.697Z,14.82
2023-03-12T11:21:14.333Z,14.88
2023-03-12T11:23:44.168Z,14.67
2023-03-12T11:26:16.979Z,14.87
2023-03-12T11:28:48.133Z,14.79
2023-03-12T11:31:22.770Z,14.98
2023-03-12T11:33:52.867Z,14.54
2023-03-12T11:36:36.413Z,14.76
2023-03-12T11:39:15.148Z,14.65
2023-03-12T11:42:01.002Z,14.61
2023-03-12T11:44:38.729Z,14.68
2023-03-12T11:47:20.528Z,14.73
2023-03-12T11:50:04.978Z,14.77
2023-03-12T11:52:48.031Z,14.47
2023-03-12T11:55:23.375Z,14.36
2023-03-12T11:58:09.158Z,14.12
2023-03-12T12:00:47.952Z,14.10
2023-03-12T12:03:40.627Z,14.08
2023-03-12T12:06:14.015Z,14.19
2023-03-12T12:08:57.476Z,14.48
2023-03-12T12:11:35.453Z,14.64
2023-03-12T12:14:14.122Z,14.94
2023-03-12T12:16:59.563Z,14.86
2023-03-12T12:19:38.711Z,14.87
2023-03-12T12:22:26.479Z,14.64
2023-03-12T12:25:17.717Z,14.66
2023-03-12T12:27:54.449Z,14.59
2023-03-12T12:30:30.506Z,14.57
2023-03-12T12:33:15.558Z,14.56
2023-03-12T12:35:44.362Z,14.21
2023-03-12T12:38:16.031Z,14.25
2023-03-12T12:40:50.236Z,14.19
2023-03-12T12:43:28.100Z,14.17
2023-03-12T12:46:00.363Z,14.22
2023-03-12T12:48:34.966Z,14.28
2023-03-12T12:51:08.294Z,14.34
2023-03-12T12:53:43.216Z,14.36
2023-03-12T12:56:20.421Z,14.12
2023-03-12T12:59:10.394Z,14.10
2023-03-12T13:01:39.853Z,14.01
2023-03-12T13:04:13.172Z,14.18
2023-03-12T13:06:59.661Z,14.14
2023-03-12T13:09:43.396Z,14.34
2023-03-12T13:12:21.661Z,14.38
2023-03-12T13:14:50.757Z,14.42
2023-03-12T13:17:33.391Z,14.49
2023-03-12T13:20:17.681Z,14.61
2023-03-12T13:23:10.620Z,14.56
2023-03-12T13:25:55.080Z,14.55
2023-03-12T13:28:42.019Z,14.22
2023-03-12T13:31:37.854Z,14.08
2023-03-12T13:34:46.505Z,14.01
2023-03-12T13:37:57.804Z,13.93
2023-03-12T13:40:36.230Z,13.82
2023-03-12T13:43:12.490Z,13.48
2023-03-12T13:46:01.544Z,13.47
2023-03-12T13:48:29.796Z,13.53
2023-03-12T13:51:00.708Z,13.63
2023-03-12T13:53:34.616Z,13.59
2023-03-12T13:56:06.736Z,13.44
2023-03-12T13:58:42.569Z,13.26
2023-03-12T14:01:18.620Z,13.17
2023-03-12T14:03:54.323Z,13.20
2023-03-12T14:06:24.715Z,13.12
2023-03-12T14:09:05.103Z,13.02
2023-03-12T14:11:42.260Z,13.17
2023-03-12T14:14:49.949Z,13.12
2023-03-12T14:17:21.317Z,13.22
2023-03-12T14:19:56.388Z,13.18
2023-03-12T14:22:25.566Z,13.27
2023-03-12T14:25:00.501Z,13.25
2023-03-12T14:27:31.702Z,12.99
2023-03-12T14:30:08.385Z,12.86
2023-03-12T14:32:41.383Z,12.85
2023-03-12T14:35:20.380Z,12.87
2023-03-12T14:37:55.733Z,12.85
2023-03-12T14:40:27.279Z,12.84
2023-03-12T14:42:56.655Z,12.76
2023-03-12T14:45:25.921Z,12.79
2023-03-12T14:47:58.231Z,12.70
2023-03-12T14:50:28.747Z,12.68
2023-03-12T14:53:11.171Z,12.67
2023-03-12T14:55:39.409Z,12.67
2023-03-12T14:58:16.357Z,12.78
2023-03-12T15:00:46.881Z,12.70
2023-03-12T15:03:17.823Z,12.65
2023-03-12T15:05:47.915Z,12.54
2023-03-12T15:08:18.011Z,12.54
2023-03-12T15:10:49.743Z,12.45
2023-03-12T15:13:20.603Z,12.51
2023-03-12T15:15:51.188Z,12.53
2023-03-12T15:18:25.486Z,12.47
2023-03-12T15:20:55.448Z,12.42
2023-03-12T15:23:24.809Z,12.53
2023-03-12T15:26:11.245Z,12.35
2023-03-12T15:28:39.906Z,12.31
2023-03-12T15:31:11.832Z,12.38
2023-03-12T15:33:42.635Z,12.38
2023-03-12T15:36:24.880Z,12.38
2023-03-12T15:38:56.013Z,12.32
2023-03-12T15:41:27.771Z,12.29
2023-03-12T15:43:58.412Z,12.40
2023-03-12T15:46:28.163Z,12.38
2023-03-12T15:49:00.381Z,12.38
2023-03-12T15:51:31.700Z,12.31
2023-03-12T15:54:01.710Z,12.32
2023-03-12T15:56:32.214Z,12.33
2023-03-12T15:59:05.731Z,12.35
2023-03-12T16:01:46.086Z,12.27
2023-03-12T16:04:15.760Z,12.29
2023-03-12T16:06:47.001Z,12.22
2023-03-12T16:09:19.927Z,12.20
2023-03-12T16:11:48.811Z,12.21
2023-03-12T16:14:20.018Z,12.19
2023-03-12T16:16:48.336Z,12.14
2023-03-12T16:19:20.297Z,12.09
2023-03-12T16:21:49.279Z,12.12
2023-03-12T16:24:17.969Z,12.11
2023-03-12T16:26:50.084Z,12.07
2023-03-12T16:29:20.213Z,12.03
2023-03-12T16:31:52.139Z,12.04
2023-03-12T16:34:21.875Z,12.07
2023-03-12T16:36:49.850Z,12.09
2023-03-12T16:39:18.994Z,11.99
2023-03-12T16:41:47.667Z,12.04
2023-03-12T16:44:21.223Z,12.11
2023-03-12T16:46:50.899Z,12.06
2023-03-12T16:49:21.274Z,11.72
2023-03-12T16:51:51.258Z,11.95
2023-03-12T16:54:19.548Z,12.06
2023-03-12T16:56:51.012Z,12.03
2023-03-12T16:59:26.597Z,11.87
2023-03-12T17:01:55.398Z,11.98
2023-03-12T17:04:24.055Z,12.05
2023-03-12T17:06:53.383Z,12.06
2023-03-12T17:09:21.370Z,11.99
2023-03-12T17:11:52.595Z,12.05
2023-03-12T17:14:23.193Z,12.00
2023-03-12T17:16:51.852Z,12.04
2023-03-12T17:19:19.861Z,12.02
2023-03-12T17:21:48.840Z,11.99
2023-03-12T17:24:18.628Z,11.96
2023-03-12T17:26:47.668Z,11.92
2023-03-12T17:29:15.669Z,11.87
2023-03-12T17:31:43.855Z,11.84
2023-03-12T17:34:11.748Z,11.87
2023-03-12T17:36:40.336Z,11.92
2023-03-12T17:39:08.619Z,11.90
2023-03-12T17:41:37.865Z,11.91
2023-03-12T17:44:07.124Z,11.88
2023-03-12T17:46:39.153Z,11.80
2023-03-12T17:49:08.931Z,11.79
2023-03-12T17:51:37.123Z,11.75
2023-03-12T17:54:05.313Z,11.84
2023-03-12T17:56:33.257Z,11.77
2023-03-12T17:59:02.861Z,11.88
2023-03-12T18:01:30.780Z,11.82
2023-03-12T18:03:59.082Z,11.84
2023-03-12T18:06:27.057Z,11.58
2023-03-12T18:08:54.974Z,11.79
2023-03-12T18:11:23.220Z,11.79
2023-03-12T18:13:51.311Z,11.83
2023-03-12T18:16:20.809Z,11.97
2023-03-12T18:18:51.511Z,12.02
2023-03-12T18:21:20.349Z,11.92
2023-03-12T18:23:48.563Z,12.12
2023-03-12T18:26:16.638Z,12.15
2023-03-12T18:28:44.563Z,12.02
2023-03-12T18:31:12.859Z,12.23
2023-03-12T18:33:44.701Z,12.22
2023-03-12T18:36:12.987Z,12.09
2023-03-12T18:38:41.053Z,12.21
2023-03-12T18:41:12.365Z,12.09
2023-03-12T18:43:41.848Z,12.18
2023-03-12T18:46:11.423Z,12.26
2023-03-12T18:48:40.881Z,12.23
2023-03-12T18:51:11.317Z,12.29
2023-03-12T18:53:41.648Z,12.34
2023-03-12T18:56:09.902Z,12.25
2023-03-12T18:58:37.935Z,12.31
2023-03-12T19:01:06.175Z,12.28
2023-03-12T19:03:36.472Z,12.31
2023-03-12T19:06:06.687Z,12.39
2023-03-12T19:08:38.050Z,12.40
2023-03-12T19:11:07.038Z,12.42
2023-03-12T19:13:35.633Z,12.40
2023-03-12T19:16:08.315Z,12.42
2023-03-12T19:18:37.955Z,12.44
2023-03-12T19:21:08.365Z,12.45
2023-03-12T19:23:38.094Z,12.46
2023-03-12T19:26:07.598Z,12.50
2023-03-12T19:28:36.011Z,12.50
2023-03-12T19:31:06.493Z,12.48
2023-03-12T19:33:34.635Z,12.52
2023-03-12T19:36:05.191Z,12.48
2023-03-12T19:38:33.785Z,12.50
2023-03-12T19:41:03.069Z,12.41
2023-03-12T19:43:31.356Z,12.53
2023-03-12T19:45:59.721Z,12.56
2023-03-12T19:48:27.834Z,12.55
2023-03-12T19:50:56.042Z,12.54
2023-03-12T19:53:24.806Z,12.57
2023-03-12T19:55:53.102Z,12.55
2023-03-12T19:58:22.645Z,12.56
2023-03-12T20:00:50.828Z,12.51
2023-03-12T20:03:20.700Z,12.56
2023-03-12T20:05:50.469Z,12.35
2023-03-12T20:08:20.845Z,12.60
2023-03-12T20:10:49.510Z,12.58
2023-03-12T20:13:18.405Z,12.65
2023-03-12T20:15:48.511Z,12.75
2023-03-12T20:18:17.228Z,12.78
2023-03-12T20:20:45.146Z,12.77
2023-03-12T20:23:13.406Z,12.76
2023-03-12T20:25:42.199Z,12.86
2023-03-12T20:28:11.308Z,12.84
2023-03-12T20:30:41.291Z,12.91
2023-03-12T20:33:10.688Z,12.92
2023-03-12T20:35:39.697Z,12.94
2023-03-12T20:38:07.979Z,12.94
2023-03-12T20:40:36.127Z,12.94
2023-03-12T20:43:04.879Z,12.98
2023-03-12T20:45:34.542Z,12.95
2023-03-12T20:48:03.206Z,12.96
2023-03-12T20:50:32.572Z,12.95
2023-03-12T20:53:00.756Z,13.00
2023-03-12T20:55:28.894Z,13.02
2023-03-12T20:57:56.933Z,13.06
2023-03-12T21:00:25.327Z,13.05
2023-03-12T21:02:53.461Z,13.06
2023-03-12T21:05:23.806Z,13.10
2023-03-12T21:07:58.190Z,13.06
2023-03-12T21:10:26.485Z,13.11
2023-03-12T21:12:54.680Z,13.13
2023-03-12T21:15:22.837Z,13.12
2023-03-12T21:17:50.822Z,13.13
2023-03-12T21:20:19.553Z,13.14
2023-03-12T21:22:47.613Z,13.14
2023-03-12T21:25:17.264Z,13.16
2023-03-12T21:27:51.020Z,13.15
2023-03-12T21:30:20.334Z,13.16
2023-03-12T21:32:48.954Z,13.19
2023-03-12T21:35:17.489Z,13.17
2023-03-12T21:37:45.417Z,13.21
2023-03-12T21:40:14.921Z,13.19
2023-03-12T21:42:44.561Z,13.17
2023-03-12T21:45:13.038Z,13.16
2023-03-12T21:47:42.162Z,13.17
2023-03-12T21:50:11.783Z,13.13
2023-03-12T21:52:42.939Z,13.16
2023-03-12T21:55:12.270Z,13.15
2023-03-12T21:57:40.243Z,13.16
2023-03-12T22:00:12.900Z,13.17
2023-03-12T22:02:41.921Z,13.14
2023-03-12T22:05:10.468Z,13.16
2023-03-12T22:07:38.761Z,13.17
2023-03-12T22:10:11.831Z,13.21
2023-03-12T22:12:42.448Z,13.23
2023-03-12T22:15:12.877Z,13.25
2023-03-12T22:17:40.952Z,13.26
2023-03-12T22:20:10.602Z,13.28
2023-03-12T22:22:38.880Z,13.31
2023-03-12T22:25:07.441Z,13.33
2023-03-12T22:27:35.487Z,13.33
2023-03-12T22:30:04.164Z,13.36
2023-03-12T22:32:33.680Z,13.37
2023-03-12T22:35:01.870Z,13.37
2023-03-12T22:37:30.076Z,13.38
2023-03-12T22:40:01.516Z,13.37
2023-03-12T22:42:29.726Z,13.38
2023-03-12T22:44:57.662Z,13.39
2023-03-12T22:47:25.852Z,13.36
2023-03-12T22:49:58.463Z,13.37
2023-03-12T22:52:26.671Z,13.35
2023-03-12T22:54:54.903Z,13.34
2023-03-12T22:57:22.873Z,13.31
2023-03-12T22:59:50.757Z,13.37
2023-03-12T23:02:19.368Z,13.34
2023-03-12T23:04:47.446Z,13.36
2023-03-12T23:07:16.876Z,13.37
2023-03-12T23:09:45.815Z,13.36
2023-03-12T23:12:14.085Z,13.38
2023-03-12T23:14:42.134Z,13.40
2023-03-12T23:17:10.385Z,13.38
2023-03-12T23:19:38.528Z,13.35
2023-03-12T23:22:07.803Z,13.39
2023-03-12T23:24:37.570Z,13.37
2023-03-12T23:27:05.949Z,13.35
2023-03-12T23:29:35.701Z,13.35
2023-03-12T23:32:04.609Z,13.32
2023-03-12T23:34:34.609Z,13.27
2023-03-12T23:37:02.752Z,13.28
2023-03-12T23:39:32.798Z,13.30
2023-03-12T23:42:04.801Z,13.23
2023-03-12T23:44:33.331Z,13.22
2023-03-12T23:47:01.447Z,13.21
2023-03-12T23:49:29.367Z,13.20
2023-03-12T23:51:57.555Z,13.20
2023-03-12T23:54:25.552Z,13.18
2023-03-12T23:56:53.618Z,13.23
2023-03-12T23:59:23.255Z,13.21
